sensor_id;sensor_type;location;lat;lon;timestamp;pressure;altitude;pressure_sealevel;temperature;humidity
16094;BME280;8151;47.824;12.092;2023-05-02T00:00:21;96349.59;;;12.46;85.50
16094;BME280;8151;47.824;12.092;2023-05-02T00:02:49;96346.13;;;12.46;85.66
16094;BME280;8151;47.824;12.092;2023-05-02T00:05:18;96345.31;;;12.45;85.56
16094;BME280;8151;47.824;12.092;2023-05-02T00:07:47;96340.50;;;12.40;85.66
16094;BME280;8151;47.824;12.092;2023-05-02T00:10:17;96339.44;;;12.35;85.57
16094;BME280;8151;47.824;12.092;2023-05-02T00:12:52;96342.44;;;12.32;85.74
16094;BME280;8151;47.824;12.092;2023-05-02T00:15:21;96349.09;;;12.28;85.78
16094;BME280;8151;47.824;12.092;2023-05-02T00:17:52;96346.97;;;12.23;85.91
16094;BME280;8151;47.824;12.092;2023-05-02T00:20:25;96351.63;;;12.21;85.95
16094;BME280;8151;47.824;12.092;2023-05-02T00:22:54;96343.03;;;12.19;85.95
16094;BME280;8151;47.824;12.092;2023-05-02T00:25:24;96347.34;;;12.20;85.84
16094;BME280;8151;47.824;12.092;2023-05-02T00:27:53;96348.97;;;12.21;85.92
16094;BME280;8151;47.824;12.092;2023-05-02T00:30:22;96350.81;;;12.20;85.93
16094;BME280;8151;47.824;12.092;2023-05-02T00:32:50;96352.28;;;12.23;86.10
16094;BME280;8151;47.824;12.092;2023-05-02T00:35:20;96353.28;;;12.22;85.95
16094;BME280;8151;47.824;12.092;2023-05-02T00:37:49;96350.00;;;12.20;85.95
16094;BME280;8151;47.824;12.092;2023-05-02T00:40:18;96348.88;;;12.14;85.98
16094;BME280;8151;47.824;12.092;2023-05-02T00:42:48;96339.63;;;12.10;86.29
16094;BME280;8151;47.824;12.092;2023-05-02T00:45:16;96347.84;;;12.15;86.21
16094;BME280;8151;47.824;12.092;2023-05-02T00:47:46;96345.88;;;12.17;86.22
16094;BME280;8151;47.824;12.092;2023-05-02T00:50:16;96343.56;;;12.14;86.07
16094;BME280;8151;47.824;12.092;2023-05-02T00:52:47;96345.94;;;12.09;86.28
16094;BME280;8151;47.824;12.092;2023-05-02T00:55:16;96341.66;;;12.08;86.24
16094;BME280;8151;47.824;12.092;2023-05-02T00:57:46;96339.81;;;12.09;86.26
16094;BME280;8151;47.824;12.092;2023-05-02T01:00:20;96346.41;;;12.13;86.26
16094;BME280;8151;47.824;12.092;2023-05-02T01:02:54;96342.47;;;12.09;86.14
16094;BME280;8151;47.824;12.092;2023-05-02T01:05:28;96344.13;;;12.10;86.16
16094;BME280;8151;47.824;12.092;2023-05-02T01:08:05;96343.75;;;12.13;86.06
16094;BME280;8151;47.824;12.092;2023-05-02T01:10:46;96356.66;;;12.16;85.91
16094;BME280;8151;47.824;12.092;2023-05-02T01:13:20;96349.22;;;12.11;85.99
16094;BME280;8151;47.824;12.092;2023-05-02T01:15:52;96352.72;;;12.12;85.98
16094;BME280;8151;47.824;12.092;2023-05-02T01:18:23;96352.34;;;12.15;85.96
16094;BME280;8151;47.824;12.092;2023-05-02T01:20:56;96355.66;;;12.17;85.83
16094;BME280;8151;47.824;12.092;2023-05-02T01:23:32;96354.00;;;12.16;85.84
16094;BME280;8151;47.824;12.092;2023-05-02T01:26:12;96352.34;;;12.15;85.82
16094;BME280;8151;47.824;12.092;2023-05-02T01:28:52;96362.97;;;12.15;85.89
16094;BME280;8151;47.824;12.092;2023-05-02T01:31:24;96367.28;;;12.16;85.83
16094;BME280;8151;47.824;12.092;2023-05-02T01:33:54;96359.84;;;12.11;85.67
16094;BME280;8151;47.824;12.092;2023-05-02T01:36:25;96364.38;;;12.02;85.68
16094;BME280;8151;47.824;12.092;2023-05-02T01:38:57;96372.84;;;11.98;85.70
16094;BME280;8151;47.824;12.092;2023-05-02T01:41:30;96372.41;;;11.94;85.63
16094;BME280;8151;47.824;12.092;2023-05-02T01:44:01;96368.09;;;11.93;85.72
16094;BME280;8151;47.824;12.092;2023-05-02T01:46:32;96375.22;;;11.93;85.65
16094;BME280;8151;47.824;12.092;2023-05-02T01:49:04;96377.41;;;11.89;85.62
16094;BME280;8151;47.824;12.092;2023-05-02T01:51:34;96373.91;;;11.89;85.64
16094;BME280;8151;47.824;12.092;2023-05-02T01:54:06;96368.59;;;11.89;85.60
16094;BME280;8151;47.824;12.092;2023-05-02T01:56:37;96367.97;;;11.87;85.52
16094;BME280;8151;47.824;12.092;2023-05-02T01:59:10;96364.66;;;11.85;85.55
16094;BME280;8151;47.824;12.092;2023-05-02T02:01:40;96371.13;;;11.82;85.58
16094;BME280;8151;47.824;12.092;2023-05-02T02:04:10;96370.47;;;11.80;85.50
16094;BME280;8151;47.824;12.092;2023-05-02T02:06:44;96375.13;;;11.78;85.70
16094;BME280;8151;47.824;12.092;2023-05-02T02:09:14;96378.13;;;11.75;85.70
16094;BME280;8151;47.824;12.092;2023-05-02T02:11:45;96368.19;;;11.77;85.63
16094;BME280;8151;47.824;12.092;2023-05-02T02:14:19;96368.84;;;11.79;85.54
16094;BME280;8151;47.824;12.092;2023-05-02T02:17:00;96371.28;;;11.80;85.64
16094;BME280;8151;47.824;12.092;2023-05-02T02:19:30;96387.03;;;11.82;85.67
16094;BME280;8151;47.824;12.092;2023-05-02T02:22:05;96377.25;;;11.82;85.59
16094;BME280;8151;47.824;12.092;2023-05-02T02:24:35;96380.09;;;11.81;85.51
16094;BME280;8151;47.824;12.092;2023-05-02T02:27:04;96383.88;;;11.78;85.58
16094;BME280;8151;47.824;12.092;2023-05-02T02:29:34;96376.97;;;11.77;85.59
16094;BME280;8151;47.824;12.092;2023-05-02T02:32:03;96382.25;;;11.77;85.74
16094;BME280;8151;47.824;12.092;2023-05-02T02:34:31;96385.06;;;11.76;85.43
16094;BME280;8151;47.824;12.092;2023-05-02T02:37:04;96385.41;;;11.73;85.49
16094;BME280;8151;47.824;12.092;2023-05-02T02:39:43;96380.47;;;11.70;85.67
16094;BME280;8151;47.824;12.092;2023-05-02T02:42:18;96386.75;;;11.69;85.67
16094;BME280;8151;47.824;12.092;2023-05-02T02:44:55;96383.47;;;11.67;85.55
16094;BME280;8151;47.824;12.092;2023-05-02T02:47:31;96380.34;;;11.63;85.90
16094;BME280;8151;47.824;12.092;2023-05-02T02:50:12;96385.84;;;11.61;85.74
16094;BME280;8151;47.824;12.092;2023-05-02T02:52:55;96381.53;;;11.60;85.92
16094;BME280;8151;47.824;12.092;2023-05-02T02:55:35;96385.19;;;11.59;85.81
16094;BME280;8151;47.824;12.092;2023-05-02T02:58:14;96385.53;;;11.56;85.58
16094;BME280;8151;47.824;12.092;2023-05-02T03:00:54;96379.88;;;11.59;85.76
16094;BME280;8151;47.824;12.092;2023-05-02T03:03:25;96386.66;;;11.62;85.67
16094;BME280;8151;47.824;12.092;2023-05-02T03:05:55;96388.66;;;11.60;85.57
16094;BME280;8151;47.824;12.092;2023-05-02T03:08:23;96388.47;;;11.61;85.88
16094;BME280;8151;47.824;12.092;2023-05-02T03:10:52;96388.97;;;11.65;85.59
16094;BME280;8151;47.824;12.092;2023-05-02T03:13:20;96395.09;;;11.66;85.70
16094;BME280;8151;47.824;12.092;2023-05-02T03:16:11;96393.41;;;11.65;85.90
16094;BME280;8151;47.824;12.092;2023-05-02T03:18:48;96392.25;;;11.67;85.78
16094;BME280;8151;47.824;12.092;2023-05-02T03:21:16;96390.44;;;11.68;85.79
16094;BME280;8151;47.824;12.092;2023-05-02T03:23:45;96389.25;;;11.70;85.93
16094;BME280;8151;47.824;12.092;2023-05-02T03:26:16;96393.38;;;11.73;85.89
16094;BME280;8151;47.824;12.092;2023-05-02T03:28:44;96395.84;;;11.74;85.81
16094;BME280;8151;47.824;12.092;2023-05-02T03:31:18;96396.00;;;11.73;85.85
16094;BME280;8151;47.824;12.092;2023-05-02T03:33:49;96394.22;;;11.73;86.00
16094;BME280;8151;47.824;12.092;2023-05-02T03:36:17;96396.88;;;11.73;86.09
16094;BME280;8151;47.824;12.092;2023-05-02T03:38:46;96402.34;;;11.72;86.12
16094;BME280;8151;47.824;12.092;2023-05-02T03:41:15;96409.81;;;11.68;86.17
16094;BME280;8151;47.824;12.092;2023-05-02T03:43:43;96404.66;;;11.67;86.46
16094;BME280;8151;47.824;12.092;2023-05-02T03:46:12;96406.50;;;11.66;86.53
16094;BME280;8151;47.824;12.092;2023-05-02T03:48:42;96405.69;;;11.66;86.45
16094;BME280;8151;47.824;12.092;2023-05-02T03:51:12;96404.03;;;11.65;86.64
16094;BME280;8151;47.824;12.092;2023-05-02T03:53:41;96413.28;;;11.69;86.27
16094;BME280;8151;47.824;12.092;2023-05-02T03:56:09;96418.56;;;11.69;86.35
16094;BME280;8151;47.824;12.092;2023-05-02T03:58:38;96414.63;;;11.65;86.46
16094;BME280;8151;47.824;12.092;2023-05-02T04:01:12;96408.97;;;11.68;86.54
16094;BME280;8151;47.824;12.092;2023-05-02T04:03:43;96422.06;;;11.69;86.48
16094;BME280;8151;47.824;12.092;2023-05-02T04:06:11;96423.53;;;11.72;86.48
16094;BME280;8151;47.824;12.092;2023-05-02T04:08:40;96431.16;;;11.75;86.40
16094;BME280;8151;47.824;12.092;2023-05-02T04:11:08;96432.94;;;11.74;86.30
16094;BME280;8151;47.824;12.092;2023-05-02T04:13:37;96431.97;;;11.75;86.38
16094;BME280;8151;47.824;12.092;2023-05-02T04:16:08;96428.94;;;11.78;86.53
16094;BME280;8151;47.824;12.092;2023-05-02T04:18:36;96432.75;;;11.84;86.46
16094;BME280;8151;47.824;12.092;2023-05-02T04:21:07;96434.41;;;11.85;86.44
16094;BME280;8151;47.824;12.092;2023-05-02T04:23:36;96437.53;;;11.89;86.43
16094;BME280;8151;47.824;12.092;2023-05-02T04:26:05;96443.34;;;11.92;86.34
16094;BME280;8151;47.824;12.092;2023-05-02T04:28:34;96446.44;;;11.96;86.44
16094;BME280;8151;47.824;12.092;2023-05-02T04:31:03;96451.25;;;12.00;86.15
16094;BME280;8151;47.824;12.092;2023-05-02T04:33:31;96455.19;;;12.05;86.22
16094;BME280;8151;47.824;12.092;2023-05-02T04:36:00;96466.63;;;12.05;86.10
16094;BME280;8151;47.824;12.092;2023-05-02T04:38:30;96470.09;;;12.06;86.26
16094;BME280;8151;47.824;12.092;2023-05-02T04:40:58;96465.44;;;12.08;86.13
16094;BME280;8151;47.824;12.092;2023-05-02T04:43:35;96476.53;;;12.11;85.99
16094;BME280;8151;47.824;12.092;2023-05-02T04:46:08;96485.34;;;12.12;86.05
16094;BME280;8151;47.824;12.092;2023-05-02T04:48:37;96485.34;;;12.12;86.05
16094;BME280;8151;47.824;12.092;2023-05-02T04:51:08;96484.69;;;12.10;86.18
16094;BME280;8151;47.824;12.092;2023-05-02T04:53:37;96490.31;;;12.07;86.27
16094;BME280;8151;47.824;12.092;2023-05-02T04:56:06;96495.47;;;12.08;86.04
16094;BME280;8151;47.824;12.092;2023-05-02T04:58:35;96503.41;;;12.08;86.04
16094;BME280;8151;47.824;12.092;2023-05-02T05:01:03;96499.75;;;12.09;86.09
16094;BME280;8151;47.824;12.092;2023-05-02T05:03:31;96507.72;;;12.09;85.89
16094;BME280;8151;47.824;12.092;2023-05-02T05:06:00;96506.06;;;12.08;86.05
16094;BME280;8151;47.824;12.092;2023-05-02T05:08:29;96512.03;;;12.10;85.84
16094;BME280;8151;47.824;12.092;2023-05-02T05:10:59;96515.66;;;12.09;85.81
16094;BME280;8151;47.824;12.092;2023-05-02T05:13:27;96518.31;;;12.09;85.93
16094;BME280;8151;47.824;12.092;2023-05-02T05:15:56;96523.28;;;12.12;85.67
16094;BME280;8151;47.824;12.092;2023-05-02T05:18:25;96533.91;;;12.12;85.91
16094;BME280;8151;47.824;12.092;2023-05-02T05:20:53;96530.06;;;12.15;85.89
16094;BME280;8151;47.824;12.092;2023-05-02T05:23:22;96535.03;;;12.18;85.85
16094;BME280;8151;47.824;12.092;2023-05-02T05:25:50;96536.66;;;12.19;85.73
16094;BME280;8151;47.824;12.092;2023-05-02T05:28:20;96526.25;;;12.17;85.89
16094;BME280;8151;47.824;12.092;2023-05-02T05:30:51;96539.69;;;12.16;85.84
16094;BME280;8151;47.824;12.092;2023-05-02T05:33:20;96551.94;;;12.17;85.86
16094;BME280;8151;47.824;12.092;2023-05-02T05:35:49;96544.28;;;12.22;85.93
16094;BME280;8151;47.824;12.092;2023-05-02T05:38:18;96554.53;;;12.25;85.97
16094;BME280;8151;47.824;12.092;2023-05-02T05:40:50;96555.56;;;12.24;85.97
16094;BME280;8151;47.824;12.092;2023-05-02T05:43:20;96550.41;;;12.23;86.02
16094;BME280;8151;47.824;12.092;2023-05-02T05:45:50;96562.03;;;12.21;85.97
16094;BME280;8151;47.824;12.092;2023-05-02T05:48:19;96560.38;;;12.20;86.02
16094;BME280;8151;47.824;12.092;2023-05-02T05:50:48;96576.13;;;12.22;86.27
16094;BME280;8151;47.824;12.092;2023-05-02T05:53:18;96582.72;;;12.26;86.20
16094;BME280;8151;47.824;12.092;2023-05-02T05:55:47;96575.75;;;12.25;86.22
16094;BME280;8151;47.824;12.092;2023-05-02T05:58:19;96581.53;;;12.29;86.23
16094;BME280;8151;47.824;12.092;2023-05-02T06:00:48;96587.34;;;12.32;86.29
16094;BME280;8151;47.824;12.092;2023-05-02T06:03:17;96585.50;;;12.33;86.26
16094;BME280;8151;47.824;12.092;2023-05-02T06:05:45;96581.88;;;12.34;86.24
16094;BME280;8151;47.824;12.092;2023-05-02T06:08:14;96585.34;;;12.34;86.22
16094;BME280;8151;47.824;12.092;2023-05-02T06:10:42;96587.81;;;12.36;86.33
16094;BME280;8151;47.824;12.092;2023-05-02T06:13:10;96592.97;;;12.37;86.31
16094;BME280;8151;47.824;12.092;2023-05-02T06:15:40;96596.25;;;12.39;86.15
16094;BME280;8151;47.824;12.092;2023-05-02T06:18:09;96603.22;;;12.40;86.12
16094;BME280;8151;47.824;12.092;2023-05-02T06:20:37;96597.56;;;12.44;86.21
16094;BME280;8151;47.824;12.092;2023-05-02T06:23:05;96604.34;;;12.46;85.99
16094;BME280;8151;47.824;12.092;2023-05-02T06:25:36;96601.53;;;12.48;86.19
16094;BME280;8151;47.824;12.092;2023-05-02T06:28:05;96603.00;;;12.50;86.03
16094;BME280;8151;47.824;12.092;2023-05-02T06:30:33;96605.47;;;12.52;85.92
16094;BME280;8151;47.824;12.092;2023-05-02T06:33:04;96612.63;;;12.51;85.77
16094;BME280;8151;47.824;12.092;2023-05-02T06:35:33;96611.63;;;12.52;85.83
16094;BME280;8151;47.824;12.092;2023-05-02T06:38:02;96617.41;;;12.56;85.69
16094;BME280;8151;47.824;12.092;2023-05-02T06:40:30;96612.41;;;12.61;85.65
16094;BME280;8151;47.824;12.092;2023-05-02T06:42:59;96621.31;;;12.68;85.49
16094;BME280;8151;47.824;12.092;2023-05-02T06:45:27;96613.66;;;12.73;85.34
16094;BME280;8151;47.824;12.092;2023-05-02T06:47:55;96613.78;;;12.80;85.02
16094;BME280;8151;47.824;12.092;2023-05-02T06:50:25;96614.06;;;12.85;84.85
16094;BME280;8151;47.824;12.092;2023-05-02T06:52:54;96612.09;;;12.87;85.01
16094;BME280;8151;47.824;12.092;2023-05-02T06:55:23;96617.69;;;12.92;84.98
16094;BME280;8151;47.824;12.092;2023-05-02T06:57:52;96615.50;;;12.96;84.70
16094;BME280;8151;47.824;12.092;2023-05-02T07:00:25;96621.13;;;13.01;84.86
16094;BME280;8151;47.824;12.092;2023-05-02T07:02:54;96622.41;;;13.05;84.93
16094;BME280;8151;47.824;12.092;2023-05-02T07:05:22;96619.38;;;13.08;84.74
16094;BME280;8151;47.824;12.092;2023-05-02T07:07:52;96619.03;;;13.11;84.29
16094;BME280;8151;47.824;12.092;2023-05-02T07:10:21;96622.50;;;13.12;84.44
16094;BME280;8151;47.824;12.092;2023-05-02T07:12:50;96631.31;;;13.12;84.40
16094;BME280;8151;47.824;12.092;2023-05-02T07:15:20;96629.13;;;13.16;84.28
16094;BME280;8151;47.824;12.092;2023-05-02T07:17:49;96631.91;;;13.23;84.11
16094;BME280;8151;47.824;12.092;2023-05-02T07:20:21;96629.91;;;13.25;83.73
16094;BME280;8151;47.824;12.092;2023-05-02T07:22:50;96629.44;;;13.21;83.63
16094;BME280;8151;47.824;12.092;2023-05-02T07:25:20;96627.66;;;13.13;83.96
16094;BME280;8151;47.824;12.092;2023-05-02T07:27:51;96626.38;;;13.09;83.79
16094;BME280;8151;47.824;12.092;2023-05-02T07:30:20;96634.63;;;13.14;83.51
16094;BME280;8151;47.824;12.092;2023-05-02T07:32:48;96632.44;;;13.18;83.08
16094;BME280;8151;47.824;12.092;2023-05-02T07:35:18;96637.47;;;13.13;83.14
16094;BME280;8151;47.824;12.092;2023-05-02T07:37:46;96628.19;;;13.09;83.36
16094;BME280;8151;47.824;12.092;2023-05-02T07:40:15;96631.59;;;13.17;83.27
16094;BME280;8151;47.824;12.092;2023-05-02T07:42:45;96633.72;;;13.30;82.88
16094;BME280;8151;47.824;12.092;2023-05-02T07:45:14;96631.16;;;13.37;82.67
16094;BME280;8151;47.824;12.092;2023-05-02T07:47:44;96635.94;;;13.42;82.27
16094;BME280;8151;47.824;12.092;2023-05-02T07:50:13;96638.88;;;13.47;82.39
16094;BME280;8151;47.824;12.092;2023-05-02T07:52:41;96635.75;;;13.43;82.62
16094;BME280;8151;47.824;12.092;2023-05-02T07:55:10;96634.28;;;13.41;82.82
16094;BME280;8151;47.824;12.092;2023-05-02T07:57:38;96639.41;;;13.42;82.95
16094;BME280;8151;47.824;12.092;2023-05-02T08:00:09;96637.75;;;13.41;82.74
16094;BME280;8151;47.824;12.092;2023-05-02T08:02:38;96644.56;;;13.44;82.78
16094;BME280;8151;47.824;12.092;2023-05-02T08:05:07;96630.38;;;13.51;82.68
16094;BME280;8151;47.824;12.092;2023-05-02T08:07:36;96641.19;;;13.65;82.25
16094;BME280;8151;47.824;12.092;2023-05-02T08:10:05;96640.59;;;13.77;81.79
16094;BME280;8151;47.824;12.092;2023-05-02T08:12:37;96638.56;;;13.79;81.51
16094;BME280;8151;47.824;12.092;2023-05-02T08:15:09;96641.22;;;13.79;81.72
16094;BME280;8151;47.824;12.092;2023-05-02T08:17:38;96643.38;;;13.84;81.62
16094;BME280;8151;47.824;12.092;2023-05-02T08:20:07;96643.44;;;13.91;81.22
16094;BME280;8151;47.824;12.092;2023-05-02T08:22:36;96645.84;;;14.01;80.95
16094;BME280;8151;47.824;12.092;2023-05-02T08:25:08;96641.06;;;14.11;80.79
16094;BME280;8151;47.824;12.092;2023-05-02T08:27:36;96642.34;;;14.15;80.70
16094;BME280;8151;47.824;12.092;2023-05-02T08:30:06;96638.59;;;14.24;80.50
16094;BME280;8151;47.824;12.092;2023-05-02T08:32:36;96644.19;;;14.29;80.14
16094;BME280;8151;47.824;12.092;2023-05-02T08:35:06;96644.81;;;14.31;79.94
16094;BME280;8151;47.824;12.092;2023-05-02T08:37:34;96646.75;;;14.37;79.85
16094;BME280;8151;47.824;12.092;2023-05-02T08:40:04;96645.38;;;14.42;79.46
16094;BME280;8151;47.824;12.092;2023-05-02T08:42:32;96645.13;;;14.36;79.23
16094;BME280;8151;47.824;12.092;2023-05-02T08:45:01;96650.69;;;14.42;79.34
16094;BME280;8151;47.824;12.092;2023-05-02T08:47:30;96650.03;;;14.54;78.70
16094;BME280;8151;47.824;12.092;2023-05-02T08:50:02;96649.97;;;14.63;78.59
16094;BME280;8151;47.824;12.092;2023-05-02T08:52:31;96654.53;;;14.69;78.24
16094;BME280;8151;47.824;12.092;2023-05-02T08:55:01;96652.59;;;14.77;78.18
16094;BME280;8151;47.824;12.092;2023-05-02T08:57:32;96658.44;;;14.88;78.33
16094;BME280;8151;47.824;12.092;2023-05-02T09:00:00;96660.81;;;14.98;78.11
16094;BME280;8151;47.824;12.092;2023-05-02T09:02:46;96648.00;;;15.08;78.11
16094;BME280;8151;47.824;12.092;2023-05-02T09:05:19;96649.69;;;15.15;78.31
16094;BME280;8151;47.824;12.092;2023-05-02T09:07:59;96661.25;;;15.23;77.83
16094;BME280;8151;47.824;12.092;2023-05-02T09:10:28;96664.84;;;15.30;78.05
16094;BME280;8151;47.824;12.092;2023-05-02T09:13:27;96673.91;;;15.35;77.39
16094;BME280;8151;47.824;12.092;2023-05-02T09:15:59;96672.69;;;15.38;77.58
16094;BME280;8151;47.824;12.092;2023-05-02T09:18:30;96674.22;;;15.47;77.44
16094;BME280;8151;47.824;12.092;2023-05-02T09:21:03;96676.94;;;15.54;77.25
16094;BME280;8151;47.824;12.092;2023-05-02T09:23:36;96681.72;;;15.59;77.04
16094;BME280;8151;47.824;12.092;2023-05-02T09:26:13;96673.50;;;15.60;76.66
16094;BME280;8151;47.824;12.092;2023-05-02T09:28:43;96679.47;;;15.62;76.69
16094;BME280;8151;47.824;12.092;2023-05-02T09:31:14;96675.97;;;15.62;77.29
16094;BME280;8151;47.824;12.092;2023-05-02T09:33:53;96685.63;;;15.63;76.77
16094;BME280;8151;47.824;12.092;2023-05-02T09:36:23;96685.38;;;15.58;76.89
16094;BME280;8151;47.824;12.092;2023-05-02T09:39:08;96677.97;;;15.53;76.71
16094;BME280;8151;47.824;12.092;2023-05-02T09:41:40;96687.88;;;15.59;77.03
16094;BME280;8151;47.824;12.092;2023-05-02T09:44:09;96685.44;;;15.64;76.77
16094;BME280;8151;47.824;12.092;2023-05-02T09:46:39;96680.50;;;15.61;76.66
16094;BME280;8151;47.824;12.092;2023-05-02T09:49:08;96684.59;;;15.64;76.55
16094;BME280;8151;47.824;12.092;2023-05-02T09:51:38;96679.28;;;15.64;76.65
16094;BME280;8151;47.824;12.092;2023-05-02T09:54:06;96682.19;;;15.69;76.30
16094;BME280;8151;47.824;12.092;2023-05-02T09:56:54;96684.47;;;15.72;76.31
16094;BME280;8151;47.824;12.092;2023-05-02T09:59:24;96683.75;;;15.78;76.36
16094;BME280;8151;47.824;12.092;2023-05-02T10:01:54;96691.59;;;15.86;75.90
16094;BME280;8151;47.824;12.092;2023-05-02T10:04:25;96679.13;;;15.93;75.65
16094;BME280;8151;47.824;12.092;2023-05-02T10:06:56;96686.75;;;15.97;75.70
16094;BME280;8151;47.824;12.092;2023-05-02T10:09:25;96680.19;;;15.99;75.67
16094;BME280;8151;47.824;12.092;2023-05-02T10:11:55;96691.31;;;16.03;75.59
16094;BME280;8151;47.824;12.092;2023-05-02T10:14:24;96683.28;;;16.03;75.41
16094;BME280;8151;47.824;12.092;2023-05-02T10:16:59;96684.34;;;16.02;75.41
16094;BME280;8151;47.824;12.092;2023-05-02T10:19:32;96683.44;;;15.94;75.66
16094;BME280;8151;47.824;12.092;2023-05-02T10:22:07;96688.97;;;15.93;75.57
16094;BME280;8151;47.824;12.092;2023-05-02T10:24:37;96694.31;;;15.93;75.39
16094;BME280;8151;47.824;12.092;2023-05-02T10:27:07;96692.59;;;15.85;75.12
16094;BME280;8151;47.824;12.092;2023-05-02T10:29:38;96693.47;;;15.86;75.26
16094;BME280;8151;47.824;12.092;2023-05-02T10:32:08;96694.84;;;15.82;75.14
16094;BME280;8151;47.824;12.092;2023-05-02T10:34:39;96691.22;;;15.68;75.30
16094;BME280;8151;47.824;12.092;2023-05-02T10:37:10;96697.44;;;15.53;75.40
16094;BME280;8151;47.824;12.092;2023-05-02T10:39:39;96694.03;;;15.38;75.50
16094;BME280;8151;47.824;12.092;2023-05-02T10:42:08;96693.00;;;15.39;75.55
16094;BME280;8151;47.824;12.092;2023-05-02T10:44:38;96690.22;;;15.47;75.01
16094;BME280;8151;47.824;12.092;2023-05-02T10:47:19;96693.53;;;15.49;74.47
16094;BME280;8151;47.824;12.092;2023-05-02T10:49:52;96695.78;;;15.52;74.36
16094;BME280;8151;47.824;12.092;2023-05-02T10:52:27;96686.53;;;15.48;73.85
16094;BME280;8151;47.824;12.092;2023-05-02T10:55:15;96697.78;;;15.44;72.89
16094;BME280;8151;47.824;12.092;2023-05-02T10:58:19;96700.34;;;15.37;72.61
16094;BME280;8151;47.824;12.092;2023-05-02T11:00:48;96701.56;;;15.34;73.00
16094;BME280;8151;47.824;12.092;2023-05-02T11:03:54;96699.78;;;15.20;71.35
16094;BME280;8151;47.824;12.092;2023-05-02T11:06:24;96700.63;;;15.21;72.34
16094;BME280;8151;47.824;12.092;2023-05-02T11:09:33;96700.25;;;15.24;71.25
16094;BME280;8151;47.824;12.092;2023-05-02T11:12:02;96697.06;;;15.35;71.71
16094;BME280;8151;47.824;12.092;2023-05-02T11:14:42;96694.91;;;15.45;70.66
16094;BME280;8151;47.824;12.092;2023-05-02T11:17:13;96700.03;;;15.47;70.55
16094;BME280;8151;47.824;12.092;2023-05-02T11:22:50;96699.34;;;15.60;71.06
16094;BME280;8151;47.824;12.092;2023-05-02T11:25:36;96697.63;;;15.52;70.93
16094;BME280;8151;47.824;12.092;2023-05-02T11:28:06;96698.44;;;15.52;71.09
16094;BME280;8151;47.824;12.092;2023-05-02T11:30:37;96696.50;;;15.61;70.87
16094;BME280;8151;47.824;12.092;2023-05-02T11:33:18;96702.72;;;15.68;70.55
16094;BME280;8151;47.824;12.092;2023-05-02T11:35:46;96699.84;;;15.70;70.84
16094;BME280;8151;47.824;12.092;2023-05-02T11:38:17;96702.59;;;15.77;70.99
16094;BME280;8151;47.824;12.092;2023-05-02T11:40:55;96706.13;;;15.84;70.94
16094;BME280;8151;47.824;12.092;2023-05-02T11:43:26;96703.72;;;15.89;71.15
16094;BME280;8151;47.824;12.092;2023-05-02T11:45:59;96709.50;;;15.92;71.13
16094;BME280;8151;47.824;12.092;2023-05-02T11:48:29;96708.72;;;15.99;70.64
16094;BME280;8151;47.824;12.092;2023-05-02T11:50:59;96706.31;;;16.04;70.78
16094;BME280;8151;47.824;12.092;2023-05-02T11:53:31;96710.06;;;16.09;70.56
16094;BME280;8151;47.824;12.092;2023-05-02T11:56:03;96708.19;;;16.10;70.54
16094;BME280;8151;47.824;12.092;2023-05-02T11:58:32;96716.47;;;16.15;70.55
16094;BME280;8151;47.824;12.092;2023-05-02T12:01:10;96710.50;;;16.13;70.35
16094;BME280;8151;47.824;12.092;2023-05-02T12:03:40;96708.81;;;16.12;70.52
16094;BME280;8151;47.824;12.092;2023-05-02T12:06:09;96698.97;;;16.12;70.45
16094;BME280;8151;47.824;12.092;2023-05-02T12:08:39;96699.66;;;16.21;70.42
16094;BME280;8151;47.824;12.092;2023-05-02T12:11:12;96701.53;;;16.27;70.14
16094;BME280;8151;47.824;12.092;2023-05-02T12:13:44;96704.66;;;16.31;70.00
16094;BME280;8151;47.824;12.092;2023-05-02T12:16:14;96704.03;;;16.29;70.03
16094;BME280;8151;47.824;12.092;2023-05-02T12:18:43;96695.41;;;16.33;69.77
16094;BME280;8151;47.824;12.092;2023-05-02T12:21:12;96703.66;;;16.39;69.59
16094;BME280;8151;47.824;12.092;2023-05-02T12:23:41;96711.91;;;16.44;69.47
16094;BME280;8151;47.824;12.092;2023-05-02T12:26:18;96700.81;;;16.47;69.04
16094;BME280;8151;47.824;12.092;2023-05-02T12:28:48;96704.94;;;16.49;69.43
16094;BME280;8151;47.824;12.092;2023-05-02T12:31:17;96709.91;;;16.52;69.18
16094;BME280;8151;47.824;12.092;2023-05-02T12:33:46;96718.34;;;16.56;68.88
16094;BME280;8151;47.824;12.092;2023-05-02T12:36:17;96717.31;;;16.57;68.85
16094;BME280;8151;47.824;12.092;2023-05-02T12:38:48;96716.47;;;16.50;69.06
16094;BME280;8151;47.824;12.092;2023-05-02T12:41:31;96708.84;;;16.47;69.18
16094;BME280;8151;47.824;12.092;2023-05-02T12:44:00;96711.50;;;16.40;69.44
16094;BME280;8151;47.824;12.092;2023-05-02T12:46:28;96720.06;;;16.36;69.78
16094;BME280;8151;47.824;12.092;2023-05-02T12:49:02;96718.63;;;16.33;69.77
16094;BME280;8151;47.824;12.092;2023-05-02T12:51:31;96720.84;;;16.29;69.53
16094;BME280;8151;47.824;12.092;2023-05-02T12:54:01;96713.22;;;16.26;69.49
16094;BME280;8151;47.824;12.092;2023-05-02T12:56:37;96714.44;;;16.24;69.63
16094;BME280;8151;47.824;12.092;2023-05-02T12:59:06;96714.00;;;16.20;69.62
16094;BME280;8151;47.824;12.092;2023-05-02T13:01:35;96728.13;;;16.14;69.49
16094;BME280;8151;47.824;12.092;2023-05-02T13:04:04;96725.22;;;16.09;69.24
16094;BME280;8151;47.824;12.092;2023-05-02T13:06:32;96726.44;;;16.06;68.98
16094;BME280;8151;47.824;12.092;2023-05-02T13:09:04;96727.03;;;16.02;68.75
16094;BME280;8151;47.824;12.092;2023-05-02T13:11:34;96716.53;;;16.00;68.75
16094;BME280;8151;47.824;12.092;2023-05-02T13:14:03;96721.63;;;15.95;68.91
16094;BME280;8151;47.824;12.092;2023-05-02T13:16:32;96726.94;;;15.88;69.17
16094;BME280;8151;47.824;12.092;2023-05-02T13:19:03;96722.91;;;15.78;69.26
16094;BME280;8151;47.824;12.092;2023-05-02T13:21:32;96729.00;;;15.71;69.46
16094;BME280;8151;47.824;12.092;2023-05-02T13:24:00;96727.91;;;15.66;69.61